sensor_id;sensor_type;location;lat;lon;timestamp;temperature;humidity
2945;DHT22;1482;51.398;7.128;2022-12-29T00:01:31;10.30;99.90
2945;DHT22;1482;51.398;7.128;2022-12-29T00:03:57;10.30;1.00
2945;DHT22;1482;51.398;7.128;2022-12-29T00:06:23;10.30;99.90
2945;DHT22;1482;51.398;7.128;2022-12-29T00:08:49;10.40;1.00
2945;DHT22;1482;51.398;7.128;2022-12-29T00:11:17;10.40;59.50
2945;DHT22;1482;51.398;7.128;2022-12-29T00:13:43;10.40;99.90
2945;DHT22;1482;51.398;7.128;2022-12-29T00:16:27;10.40;1.00
2945;DHT22;1482;51.398;7.128;2022-12-29T00:18:53;10.30;99.90
2945;DHT22;1482;51.398;7.128;2022-12-29T00:21:21;10.30;1.00
2945;DHT22;1482;51.398;7.128;2022-12-29T00:24:06;10.20;99.90
2945;DHT22;1482;51.398;7.128;2022-12-29T00:26:58;10.20;99.90
2945;DHT22;1482;51.398;7.128;2022-12-29T00:29:49;10.20;73.40
2945;DHT22;1482;51.398;7.128;2022-12-29T00:32:33;10.20;99.90
2945;DHT22;1482;51.398;7.128;2022-12-29T00:35:28;10.20;99.90
2945;DHT22;1482;51.398;7.128;2022-12-29T00:37:56;10.20;99.90
2945;DHT22;1482;51.398;7.128;2022-12-29T00:40:41;10.20;99.90
2945;DHT22;1482;51.398;7.128;2022-12-29T00:43:25;10.20;99.90
2945;DHT22;1482;51.398;7.128;2022-12-29T00:46:09;10.20;99.90
2945;DHT22;1482;51.398;7.128;2022-12-29T00:48:35;10.20;99.90
2945;DHT22;1482;51.398;7.128;2022-12-29T00:51:19;10.20;99.90
2945;DHT22;1482;51.398;7.128;2022-12-29T00:53:44;10.20;1.00
2945;DHT22;1482;51.398;7.128;2022-12-29T00:56:10;10.20;1.00
2945;DHT22;1482;51.398;7.128;2022-12-29T00:58:35;10.20;1.00
2945;DHT22;1482;51.398;7.128;2022-12-29T01:01:06;10.20;1.00
2945;DHT22;1482;51.398;7.128;2022-12-29T01:03:33;10.30;1.00
2945;DHT22;1482;51.398;7.128;2022-12-29T01:06:03;10.20;1.00
2945;DHT22;1482;51.398;7.128;2022-12-29T01:08:29;10.20;1.00
2945;DHT22;1482;51.398;7.128;2022-12-29T01:11:02;10.30;1.00
2945;DHT22;1482;51.398;7.128;2022-12-29T01:13:28;10.30;1.00
2945;DHT22;1482;51.398;7.128;2022-12-29T01:15:54;10.30;1.00
2945;DHT22;1482;51.398;7.128;2022-12-29T01:18:21;10.30;1.00
2945;DHT22;1482;51.398;7.128;2022-12-29T01:20:47;10.30;99.90
2945;DHT22;1482;51.398;7.128;2022-12-29T01:23:12;10.40;99.90
2945;DHT22;1482;51.398;7.128;2022-12-29T01:25:38;10.40;99.90
2945;DHT22;1482;51.398;7.128;2022-12-29T01:28:04;10.40;74.50
2945;DHT22;1482;51.398;7.128;2022-12-29T01:30:29;10.50;1.00
2945;DHT22;1482;51.398;7.128;2022-12-29T01:32:55;10.50;1.00
2945;DHT22;1482;51.398;7.128;2022-12-29T01:35:21;10.50;1.00
2945;DHT22;1482;51.398;7.128;2022-12-29T01:37:46;10.50;99.90
2945;DHT22;1482;51.398;7.128;2022-12-29T01:40:12;10.50;99.90
2945;DHT22;1482;51.398;7.128;2022-12-29T01:42:37;10.60;99.90
2945;DHT22;1482;51.398;7.128;2022-12-29T01:45:13;10.60;1.00
2945;DHT22;1482;51.398;7.128;2022-12-29T01:47:45;10.60;99.90
2945;DHT22;1482;51.398;7.128;2022-12-29T01:50:28;10.60;1.00
2945;DHT22;1482;51.398;7.128;2022-12-29T01:53:04;10.60;1.00
2945;DHT22;1482;51.398;7.128;2022-12-29T01:55:36;10.60;1.00
2945;DHT22;1482;51.398;7.128;2022-12-29T01:58:04;10.50;1.00
2945;DHT22;1482;51.398;7.128;2022-12-29T02:00:31;10.50;1.00
2945;DHT22;1482;51.398;7.128;2022-12-29T02:02:57;10.60;1.00
2945;DHT22;1482;51.398;7.128;2022-12-29T02:05:38;10.60;99.90
2945;DHT22;1482;51.398;7.128;2022-12-29T02:08:06;10.60;1.00
2945;DHT22;1482;51.398;7.128;2022-12-29T02:10:33;10.60;1.00
2945;DHT22;1482;51.398;7.128;2022-12-29T02:12:59;10.60;99.90
2945;DHT22;1482;51.398;7.128;2022-12-29T02:15:55;10.60;1.00
2945;DHT22;1482;51.398;7.128;2022-12-29T02:21:45;10.60;1.00
2945;DHT22;1482;51.398;7.128;2022-12-29T02:32:18;10.70;1.00
2945;DHT22;1482;51.398;7.128;2022-12-29T02:35:15;10.70;1.00
2945;DHT22;1482;51.398;7.128;2022-12-29T02:38:02;10.70;99.90
2945;DHT22;1482;51.398;7.128;2022-12-29T02:40:48;10.80;99.90
2945;DHT22;1482;51.398;7.128;2022-12-29T02:43:38;10.80;74.20
2945;DHT22;1482;51.398;7.128;2022-12-29T02:48:46;10.90;1.00
2945;DHT22;1482;51.398;7.128;2022-12-29T02:51:20;10.90;1.00
2945;DHT22;1482;51.398;7.128;2022-12-29T02:53:50;11.00;1.00
2945;DHT22;1482;51.398;7.128;2022-12-29T02:56:36;11.00;99.90
2945;DHT22;1482;51.398;7.128;2022-12-29T02:59:01;11.00;99.90
2945;DHT22;1482;51.398;7.128;2022-12-29T03:10:59;11.20;99.90
2945;DHT22;1482;51.398;7.128;2022-12-29T03:16:29;11.30;99.90
2945;DHT22;1482;51.398;7.128;2022-12-29T03:19:02;11.30;99.90
2945;DHT22;1482;51.398;7.128;2022-12-29T03:21:39;11.30;99.90
2945;DHT22;1482;51.398;7.128;2022-12-29T03:24:28;11.30;99.90
2945;DHT22;1482;51.398;7.128;2022-12-29T03:26:58;11.30;99.90
2945;DHT22;1482;51.398;7.128;2022-12-29T03:29:25;11.30;99.90
2945;DHT22;1482;51.398;7.128;2022-12-29T03:31:53;11.30;99.90
2945;DHT22;1482;51.398;7.128;2022-12-29T03:34:21;11.30;99.90
2945;DHT22;1482;51.398;7.128;2022-12-29T03:36:53;11.30;99.90
2945;DHT22;1482;51.398;7.128;2022-12-29T03:39:22;11.40;99.90
2945;DHT22;1482;51.398;7.128;2022-12-29T03:41:51;11.40;99.90
2945;DHT22;1482;51.398;7.128;2022-12-29T03:44:18;11.40;99.90
2945;DHT22;1482;51.398;7.128;2022-12-29T03:46:43;11.40;99.90
2945;DHT22;1482;51.398;7.128;2022-12-29T03:49:09;11.50;99.90
2945;DHT22;1482;51.398;7.128;2022-12-29T03:51:34;11.50;99.90
2945;DHT22;1482;51.398;7.128;2022-12-29T03:54:00;11.40;99.90
2945;DHT22;1482;51.398;7.128;2022-12-29T03:56:26;11.50;99.90
2945;DHT22;1482;51.398;7.128;2022-12-29T03:58:51;11.50;99.90
2945;DHT22;1482;51.398;7.128;2022-12-29T04:01:17;11.50;99.90
2945;DHT22;1482;51.398;7.128;2022-12-29T04:03:42;11.40;99.90
2945;DHT22;1482;51.398;7.128;2022-12-29T04:06:08;11.40;99.90
2945;DHT22;1482;51.398;7.128;2022-12-29T04:08:33;11.40;99.90
2945;DHT22;1482;51.398;7.128;2022-12-29T04:10:59;11.40;99.90
2945;DHT22;1482;51.398;7.128;2022-12-29T04:13:24;11.30;99.90
2945;DHT22;1482;51.398;7.128;2022-12-29T04:15:50;11.30;99.90
2945;DHT22;1482;51.398;7.128;2022-12-29T04:18:15;11.30;99.90
2945;DHT22;1482;51.398;7.128;2022-12-29T04:20:41;11.30;99.90
2945;DHT22;1482;51.398;7.128;2022-12-29T04:23:25;11.30;99.90
2945;DHT22;1482;51.398;7.128;2022-12-29T04:25:51;11.30;99.90
2945;DHT22;1482;51.398;7.128;2022-12-29T04:28:17;11.30;99.90
2945;DHT22;1482;51.398;7.128;2022-12-29T04:30:43;11.30;99.90
2945;DHT22;1482;51.398;7.128;2022-12-29T04:33:09;11.30;99.90
2945;DHT22;1482;51.398;7.128;2022-12-29T04:35:34;11.40;99.90
2945;DHT22;1482;51.398;7.128;2022-12-29T04:38:00;11.40;99.90
2945;DHT22;1482;51.398;7.128;2022-12-29T04:40:26;11.40;99.90
2945;DHT22;1482;51.398;7.128;2022-12-29T04:42:51;11.40;99.90
2945;DHT22;1482;51.398;7.128;2022-12-29T04:45:17;11.30;99.90
2945;DHT22;1482;51.398;7.128;2022-12-29T04:47:43;11.40;99.90
2945;DHT22;1482;51.398;7.128;2022-12-29T04:50:08;11.40;99.90
2945;DHT22;1482;51.398;7.128;2022-12-29T04:52:35;11.40;99.90
2945;DHT22;1482;51.398;7.128;2022-12-29T04:55:01;11.40;99.90
2945;DHT22;1482;51.398;7.128;2022-12-29T04:57:26;11.40;99.90
2945;DHT22;1482;51.398;7.128;2022-12-29T04:59:52;11.40;99.90
2945;DHT22;1482;51.398;7.128;2022-12-29T05:02:18;11.40;99.90
2945;DHT22;1482;51.398;7.128;2022-12-29T05:04:43;11.50;99.90
2945;DHT22;1482;51.398;7.128;2022-12-29T05:07:09;11.50;99.90
2945;DHT22;1482;51.398;7.128;2022-12-29T05:09:35;11.50;99.90
2945;DHT22;1482;51.398;7.128;2022-12-29T05:12:00;11.60;99.90
2945;DHT22;1482;51.398;7.128;2022-12-29T05:14:26;11.60;99.90
2945;DHT22;1482;51.398;7.128;2022-12-29T05:16:51;11.60;99.90
2945;DHT22;1482;51.398;7.128;2022-12-29T05:19:17;11.60;99.90
2945;DHT22;1482;51.398;7.128;2022-12-29T05:21:43;11.60;99.90
2945;DHT22;1482;51.398;7.128;2022-12-29T05:24:08;11.70;99.90
2945;DHT22;1482;51.398;7.128;2022-12-29T05:26:34;11.70;99.90
2945;DHT22;1482;51.398;7.128;2022-12-29T05:29:00;11.70;99.90
2945;DHT22;1482;51.398;7.128;2022-12-29T05:31:26;11.70;99.90
2945;DHT22;1482;51.398;7.128;2022-12-29T05:33:51;11.70;99.90
2945;DHT22;1482;51.398;7.128;2022-12-29T05:36:17;11.80;99.90
2945;DHT22;1482;51.398;7.128;2022-12-29T05:38:43;11.80;99.90
2945;DHT22;1482;51.398;7.128;2022-12-29T05:41:08;11.80;99.90
2945;DHT22;1482;51.398;7.128;2022-12-29T05:43:34;11.80;99.90
2945;DHT22;1482;51.398;7.128;2022-12-29T05:45:59;11.90;99.90
2945;DHT22;1482;51.398;7.128;2022-12-29T05:48:25;11.90;99.90
2945;DHT22;1482;51.398;7.128;2022-12-29T05:50:51;11.90;99.90
2945;DHT22;1482;51.398;7.128;2022-12-29T05:53:17;11.90;99.90
2945;DHT22;1482;51.398;7.128;2022-12-29T05:55:44;11.90;99.90
2945;DHT22;1482;51.398;7.128;2022-12-29T05:58:10;11.90;99.90
2945;DHT22;1482;51.398;7.128;2022-12-29T06:00:35;11.80;99.90
2945;DHT22;1482;51.398;7.128;2022-12-29T06:03:01;11.80;99.90
2945;DHT22;1482;51.398;7.128;2022-12-29T06:05:26;11.80;99.90
2945;DHT22;1482;51.398;7.128;2022-12-29T06:07:52;11.90;99.90
2945;DHT22;1482;51.398;7.128;2022-12-29T06:10:17;11.80;99.90
2945;DHT22;1482;51.398;7.128;2022-12-29T06:12:43;11.90;99.90
2945;DHT22;1482;51.398;7.128;2022-12-29T06:15:09;11.90;99.90
2945;DHT22;1482;51.398;7.128;2022-12-29T06:17:35;11.90;99.90
2945;DHT22;1482;51.398;7.128;2022-12-29T06:20:01;11.90;99.90
2945;DHT22;1482;51.398;7.128;2022-12-29T06:22:27;11.80;99.90
2945;DHT22;1482;51.398;7.128;2022-12-29T06:24:52;11.80;99.90
2945;DHT22;1482;51.398;7.128;2022-12-29T06:27:18;11.80;99.10
2945;DHT22;1482;51.398;7.128;2022-12-29T06:29:43;11.80;99.90
2945;DHT22;1482;51.398;7.128;2022-12-29T06:32:09;11.80;99.90
2945;DHT22;1482;51.398;7.128;2022-12-29T06:34:35;11.80;99.90
2945;DHT22;1482;51.398;7.128;2022-12-29T06:37:01;11.80;99.90
2945;DHT22;1482;51.398;7.128;2022-12-29T06:39:27;11.70;99.90
2945;DHT22;1482;51.398;7.128;2022-12-29T06:41:53;11.60;99.90
2945;DHT22;1482;51.398;7.128;2022-12-29T06:44:22;11.60;99.90
2945;DHT22;1482;51.398;7.128;2022-12-29T06:46:47;11.60;99.90
2945;DHT22;1482;51.398;7.128;2022-12-29T06:49:13;11.60;99.90
2945;DHT22;1482;51.398;7.128;2022-12-29T06:51:39;11.60;99.90
2945;DHT22;1482;51.398;7.128;2022-12-29T06:54:04;11.60;99.90
2945;DHT22;1482;51.398;7.128;2022-12-29T06:56:30;11.60;99.90
2945;DHT22;1482;51.398;7.128;2022-12-29T06:58:56;11.60;99.90
2945;DHT22;1482;51.398;7.128;2022-12-29T07:01:21;11.60;99.90
2945;DHT22;1482;51.398;7.128;2022-12-29T07:03:47;11.60;99.90
2945;DHT22;1482;51.398;7.128;2022-12-29T07:06:12;11.60;99.90
2945;DHT22;1482;51.398;7.128;2022-12-29T07:08:38;11.60;99.90
2945;DHT22;1482;51.398;7.128;2022-12-29T07:11:04;11.60;99.90
2945;DHT22;1482;51.398;7.128;2022-12-29T07:13:30;11.60;99.90
2945;DHT22;1482;51.398;7.128;2022-12-29T07:15:55;11.60;99.90
2945;DHT22;1482;51.398;7.128;2022-12-29T07:18:21;11.60;99.90
2945;DHT22;1482;51.398;7.128;2022-12-29T07:20:47;11.60;99.90
2945;DHT22;1482;51.398;7.128;2022-12-29T07:23:12;11.60;99.90
2945;DHT22;1482;51.398;7.128;2022-12-29T07:25:38;11.60;99.90
2945;DHT22;1482;51.398;7.128;2022-12-29T07:28:05;11.50;97.80
2945;DHT22;1482;51.398;7.128;2022-12-29T07:30:31;11.50;96.70
2945;DHT22;1482;51.398;7.128;2022-12-29T07:32:57;11.50;93.10
2945;DHT22;1482;51.398;7.128;2022-12-29T07:35:23;11.50;91.50
2945;DHT22;1482;51.398;7.128;2022-12-29T07:37:49;11.50;92.90
2945;DHT22;1482;51.398;7.128;2022-12-29T07:40:15;11.40;94.50
2945;DHT22;1482;51.398;7.128;2022-12-29T07:43:03;11.40;90.30
2945;DHT22;1482;51.398;7.128;2022-12-29T07:45:29;11.40;84.90
2945;DHT22;1482;51.398;7.128;2022-12-29T07:47:55;11.40;66.90
2945;DHT22;1482;51.398;7.128;2022-12-29T07:50:20;11.30;59.50
2945;DHT22;1482;51.398;7.128;2022-12-29T07:52:46;11.40;63.30
2945;DHT22;1482;51.398;7.128;2022-12-29T07:55:13;11.30;59.10
2945;DHT22;1482;51.398;7.128;2022-12-29T07:57:39;11.40;66.20
2945;DHT22;1482;51.398;7.128;2022-12-29T08:00:05;11.30;63.10
2945;DHT22;1482;51.398;7.128;2022-12-29T08:02:31;11.40;66.80
2945;DHT22;1482;51.398;7.128;2022-12-29T08:04:56;11.30;62.70
2945;DHT22;1482;51.398;7.128;2022-12-29T08:07:22;11.40;56.10
2945;DHT22;1482;51.398;7.128;2022-12-29T08:09:47;11.40;59.70
2945;DHT22;1482;51.398;7.128;2022-12-29T08:12:13;11.40;44.30
2945;DHT22;1482;51.398;7.128;2022-12-29T08:14:38;11.50;40.60
2945;DHT22;1482;51.398;7.128;2022-12-29T08:17:04;11.50;37.70
2945;DHT22;1482;51.398;7.128;2022-12-29T08:19:30;11.60;76.80
2945;DHT22;1482;51.398;7.128;2022-12-29T08:21:55;11.80;47.50
2945;DHT22;1482;51.398;7.128;2022-12-29T08:24:21;12.00;38.50
2945;DHT22;1482;51.398;7.128;2022-12-29T08:26:46;12.10;26.00
2945;DHT22;1482;51.398;7.128;2022-12-29T08:29:12;12.10;21.10
2945;DHT22;1482;51.398;7.128;2022-12-29T08:31:37;12.20;19.10
2945;DHT22;1482;51.398;7.128;2022-12-29T08:34:03;12.30;15.00
2945;DHT22;1482;51.398;7.128;2022-12-29T08:36:29;12.30;13.20
2945;DHT22;1482;51.398;7.128;2022-12-29T08:38:56;12.50;13.50
2945;DHT22;1482;51.398;7.128;2022-12-29T08:41:21;12.60;13.00
2945;DHT22;1482;51.398;7.128;2022-12-29T08:43:49;12.70;8.90
2945;DHT22;1482;51.398;7.128;2022-12-29T08:46:15;12.80;8.50
2945;DHT22;1482;51.398;7.128;2022-12-29T08:48:41;12.80;7.70
2945;DHT22;1482;51.398;7.128;2022-12-29T08:51:07;12.90;6.70
2945;DHT22;1482;51.398;7.128;2022-12-29T08:53:33;12.90;6.40
2945;DHT22;1482;51.398;7.128;2022-12-29T08:56:00;12.90;7.60
2945;DHT22;1482;51.398;7.128;2022-12-29T08:58:26;12.80;18.00
2945;DHT22;1482;51.398;7.128;2022-12-29T09:00:54;12.70;22.60
2945;DHT22;1482;51.398;7.128;2022-12-29T09:03:20;12.70;24.70
2945;DHT22;1482;51.398;7.128;2022-12-29T09:05:50;12.70;24.20
2945;DHT22;1482;51.398;7.128;2022-12-29T09:08:16;12.70;24.40
2945;DHT22;1482;51.398;7.128;2022-12-29T09:10:42;12.60;20.10
2945;DHT22;1482;51.398;7.128;2022-12-29T09:13:08;12.50;21.40
2945;DHT22;1482;51.398;7.128;2022-12-29T09:15:33;12.30;25.00
2945;DHT22;1482;51.398;7.128;2022-12-29T09:17:59;12.30;44.20
2945;DHT22;1482;51.398;7.128;2022-12-29T09:20:25;12.50;32.20
2945;DHT22;1482;51.398;7.128;2022-12-29T09:22:50;12.50;23.00
2945;DHT22;1482;51.398;7.128;2022-12-29T09:25:16;12.70;24.30
2945;DHT22;1482;51.398;7.128;2022-12-29T09:27:41;13.70;16.00
2945;DHT22;1482;51.398;7.128;2022-12-29T09:30:09;14.30;5.50
2945;DHT22;1482;51.398;7.128;2022-12-29T09:32:35;14.40;1.00
2945;DHT22;1482;51.398;7.128;2022-12-29T09:35:01;14.00;1.00
2945;DHT22;1482;51.398;7.128;2022-12-29T09:37:27;13.60;1.00
2945;DHT22;1482;51.398;7.128;2022-12-29T09:39:52;13.30;1.00
2945;DHT22;1482;51.398;7.128;2022-12-29T09:42:24;12.90;1.00
2945;DHT22;1482;51.398;7.128;2022-12-29T09:45:14;12.70;1.00
2945;DHT22;1482;51.398;7.128;2022-12-29T09:47:41;12.60;4.10
2945;DHT22;1482;51.398;7.128;2022-12-29T09:53:14;12.20;7.20
2945;DHT22;1482;51.398;7.128;2022-12-29T09:55:44;12.10;14.10
2945;DHT22;1482;51.398;7.128;2022-12-29T10:03:19;11.70;26.80
2945;DHT22;1482;51.398;7.128;2022-12-29T10:08:34;11.70;16.70
2945;DHT22;1482;51.398;7.128;2022-12-29T10:11:37;11.60;23.70
2945;DHT22;1482;51.398;7.128;2022-12-29T10:17:09;11.60;12.60
2945;DHT22;1482;51.398;7.128;2022-12-29T10:25:25;11.70;1.80
2945;DHT22;1482;51.398;7.128;2022-12-29T10:27:55;11.70;1.00
2945;DHT22;1482;51.398;7.128;2022-12-29T10:30:21;11.70;1.00
2945;DHT22;1482;51.398;7.128;2022-12-29T10:33:01;11.60;1.00
2945;DHT22;1482;51.398;7.128;2022-12-29T10:35:32;11.80;1.00
2945;DHT22;1482;51.398;7.128;2022-12-29T10:38:15;11.80;1.00
2945;DHT22;1482;51.398;7.128;2022-12-29T10:40:53;11.90;1.00
2945;DHT22;1482;51.398;7.128;2022-12-29T10:43:44;12.00;1.00
2945;DHT22;1482;51.398;7.128;2022-12-29T10:46:11;12.00;1.00
2945;DHT22;1482;51.398;7.128;2022-12-29T10:48:38;12.00;1.00
2945;DHT22;1482;51.398;7.128;2022-12-29T10:51:08;11.90;1.00
2945;DHT22;1482;51.398;7.128;2022-12-29T10:53:48;11.90;1.00
2945;DHT22;1482;51.398;7.128;2022-12-29T10:56:35;12.00;1.00
2945;DHT22;1482;51.398;7.128;2022-12-29T10:59:10;12.10;1.00
2945;DHT22;1482;51.398;7.128;2022-12-29T11:01:49;12.00;1.00
2945;DHT22;1482;51.398;7.128;2022-12-29T11:04:32;11.90;1.00
2945;DHT22;1482;51.398;7.128;2022-12-29T11:06:59;12.00;1.00
2945;DHT22;1482;51.398;7.128;2022-12-29T11:09:31;11.90;1.00
2945;DHT22;1482;51.398;7.128;2022-12-29T11:11:57;11.80;1.00
2945;DHT22;1482;51.398;7.128;2022-12-29T11:14:30;11.80;1.00
2945;DHT22;1482;51.398;7.128;2022-12-29T11:17:01;11.70;1.00
2945;DHT22;1482;51.398;7.128;2022-12-29T11:19:32;11.60;1.00
2945;DHT22;1482;51.398;7.128;2022-12-29T11:22:21;11.60;1.00
2945;DHT22;1482;51.398;7.128;2022-12-29T11:24:48;11.60;1.00
2945;DHT22;1482;51.398;7.128;2022-12-29T11:27:21;11.60;1.00
2945;DHT22;1482;51.398;7.128;2022-12-29T11:29:49;11.50;1.00
2945;DHT22;1482;51.398;7.128;2022-12-29T11:32:23;11.50;1.00
2945;DHT22;1482;51.398;7.128;2022-12-29T11:34:49;11.50;1.00
2945;DHT22;1482;51.398;7.128;2022-12-29T11:37:18;11.50;1.00
2945;DHT22;1482;51.398;7.128;2022-12-29T11:39:50;11.40;1.00
2945;DHT22;1482;51.398;7.128;2022-12-29T11:42:20;11.50;1.00
2945;DHT22;1482;51.398;7.128;2022-12-29T11:44:49;11.40;1.00
2945;DHT22;1482;51.398;7.128;2022-12-29T11:47:31;11.40;1.00
2945;DHT22;1482;51.398;7.128;2022-12-29T11:50:03;11.40;1.00
2945;DHT22;1482;51.398;7.128;2022-12-29T11:52:32;11.40;1.00
2945;DHT22;1482;51.398;7.128;2022-12-29T11:55:02;11.30;1.00
2945;DHT22;1482;51.398;7.128;2022-12-29T11:57:28;11.40;1.00
2945;DHT22;1482;51.398;7.128;2022-12-29T11:59:55;11.40;1.00
2945;DHT22;1482;51.398;7.128;2022-12-29T12:02:43;11.40;1.00
2945;DHT22;1482;51.398;7.128;2022-12-29T12:10:58;11.50;1.00
2945;DHT22;1482;51.398;7.128;2022-12-29T12:16:14;11.40;1.00
2945;DHT22;1482;51.398;7.128;2022-12-29T12:18:40;11.40;1.00
2945;DHT22;1482;51.398;7.128;2022-12-29T12:21:23;11.30;1.00
2945;DHT22;1482;51.398;7.128;2022-12-29T12:35:03;11.30;1.00
2945;DHT22;1482;51.398;7.128;2022-12-29T12:37:42;11.30;1.00
2945;DHT22;1482;51.398;7.128;2022-12-29T12:49:17;11.20;1.00
2945;DHT22;1482;51.398;7.128;2022-12-29T12:51:56;11.30;1.00
2945;DHT22;1482;51.398;7.128;2022-12-29T12:57:38;11.20;1.00
2945;DHT22;1482;51.398;7.128;2022-12-29T13:00:14;11.20;1.00
2945;DHT22;1482;51.398;7.128;2022-12-29T13:15:46;11.10;1.00
2945;DHT22;1482;51.398;7.128;2022-12-29T13:20:55;11.10;1.00
2945;DHT22;1482;51.398;7.128;2022-12-29T13:29:18;11.10;1.00
2945;DHT22;1482;51.398;7.128;2022-12-29T13:31:50;11.00;1.00
2945;DHT22;1482;51.398;7.128;2022-12-29T13:34:21;11.10;1.00
2945;DHT22;1482;51.398;7.128;2022-12-29T13:36:56;11.00;1.00
2945;DHT22;1482;51.398;7.128;2022-12-29T13:39:42;11.00;1.00
2945;DHT22;1482;51.398;7.128;2022-12-29T13:42:09;10.90;1.00
2945;DHT22;1482;51.398;7.128;2022-12-29T13:44:40;10.90;2.20
2945;DHT22;1482;51.398;7.128;2022-12-29T13:47:48;11.00;2.50
2945;DHT22;1482;51.398;7.128;2022-12-29T13:50:24;11.00;2.80
2945;DHT22;1482;51.398;7.128;2022-12-29T13:58:49;11.00;1.80
2945;DHT22;1482;51.398;7.128;2022-12-29T14:01:35;11.00;1.00
2945;DHT22;1482;51.398;7.128;2022-12-29T14:04:12;11.00;1.00
2945;DHT22;1482;51.398;7.128;2022-12-29T14:06:38;11.00;1.00
2945;DHT22;1482;51.398;7.128;2022-12-29T14:09:28;11.10;1.00
2945;DHT22;1482;51.398;7.128;2022-12-29T14:11:53;11.10;1.00
2945;DHT22;1482;51.398;7.128;2022-12-29T14:14:31;11.10;1.00
2945;DHT22;1482;51.398;7.128;2022-12-29T14:17:10;11.00;1.00
2945;DHT22;1482;51.398;7.128;2022-12-29T14:19:40;11.00;1.00
2945;DHT22;1482;51.398;7.128;2022-12-29T14:22:06;11.00;1.00
2945;DHT22;1482;51.398;7.128;2022-12-29T14:26:58;11.00;1.00
2945;DHT22;1482;51.398;7.128;2022-12-29T14:31:50;11.00;1.00
2945;DHT22;1482;51.398;7.128;2022-12-29T14:34:26;11.00;1.00
2945;DHT22;1482;51.398;7.128;2022-12-29T14:36:58;11.00;1.00
2945;DHT22;1482;51.398;7.128;2022-12-29T14:39:43;11.00;1.00
2945;DHT22;1482;51.398;7.128;2022-12-29T14:47:41;10.90;1.00
2945;DHT22;1482;51.398;7.128;2022-12-29T14:52:50;10.80;1.00
2945;DHT22;1482;51.398;7.128;2022-12-29T14:58:06;10.80;1.00
2945;DHT22;1482;51.398;7.128;2022-12-29T15:00:38;10.70;1.00
2945;DHT22;1482;51.398;7.128;2022-12-29T15:03:07;10.70;1.00
2945;DHT22;1482;51.398;7.128;2022-12-29T15:05:50;10.70;1.00
2945;DHT22;1482;51.398;7.128;2022-12-29T15:08:19;10.80;1.00
2945;DHT22;1482;51.398;7.128;2022-12-29T15:10:52;10.80;1.00
2945;DHT22;1482;51.398;7.128;2022-12-29T15:13:23;10.70;1.00
2945;DHT22;1482;51.398;7.128;2022-12-29T15:15:51;10.70;1.00
2945;DHT22;1482;51.398;7.128;2022-12-29T15:18:27;10.70;1.00
2945;DHT22;1482;51.398;7.128;2022-12-29T15:20:59;10.80;1.00
2945;DHT22;1482;51.398;7.128;2022-12-29T15:23:25;10.70;1.00
2945;DHT22;1482;51.398;7.128;2022-12-29T15:25:57;10.60;1.00
2945;DHT22;1482;51.398;7.128;2022-12-29T15:28:24;10.50;1.00
2945;DHT22;1482;51.398;7.128;2022-12-29T15:31:02;10.60;1.00
2945;DHT22;1482;51.398;7.128;2022-12-29T15:33:29;10.50;1.00
2945;DHT22;1482;51.398;7.128;2022-12-29T15:35:57;10.60;1.00
2945;DHT22;1482;51.398;7.128;2022-12-29T15:38:28;10.60;1.00
2945;DHT22;1482;51.398;7.128;2022-12-29T15:40:58;10.60;1.00
2945;DHT22;1482;51.398;7.128;2022-12-29T15:46:03;10.50;1.00
2945;DHT22;1482;51.398;7.128;2022-12-29T15:48:30;10.50;1.00
2945;DHT22;1482;51.398;7.128;2022-12-29T15:50:57;10.60;1.00
2945;DHT22;1482;51.398;7.128;2022-12-29T15:53:31;10.60;1.00
2945;DHT22;1482;51.398;7.128;2022-12-29T15:56:01;10.50;1.00
2945;DHT22;1482;51.398;7.128;2022-12-29T15:58:31;10.50;1.00
2945;DHT22;1482;51.398;7.128;2022-12-29T16:01:04;10.50;1.00
2945;DHT22;1482;51.398;7.128;2022-12-29T16:03:32;10.40;1.00
2945;DHT22;1482;51.398;7.128;2022-12-29T16:06:21;10.40;1.00
2945;DHT22;1482;51.398;7.128;2022-12-29T16:08:59;10.30;1.00
2945;DHT22;1482;51.398;7.128;2022-12-29T16:11:28;10.40;1.00
2945;DHT22;1482;51.398;7.128;2022-12-29T16:13:55;10.30;1.00
2945;DHT22;1482;51.398;7.128;2022-12-29T16:16:48;10.20;1.00
2945;DHT22;1482;51.398;7.128;2022-12-29T16:19:34;10.20;1.00
2945;DHT22;1482;51.398;7.128;2022-12-29T16:22:02;10.20;1.00
2945;DHT22;1482;51.398;7.128;2022-12-29T16:24:31;10.20;1.00
2945;DHT22;1482;51.398;7.128;2022-12-29T16:27:06;10.10;1.00
2945;DHT22;1482;51.398;7.128;2022-12-29T16:29:33;10.00;1.00
2945;DHT22;1482;51.398;7.128;2022-12-29T16:31:59;10.00;1.00
2945;DHT22;1482;51.398;7.128;2022-12-29T16:34:33;10.00;1.00
2945;DHT22;1482;51.398;7.128;2022-12-29T16:37:34;10.10;1.00
2945;DHT22;1482;51.398;7.128;2022-12-29T16:50:34;10.10;1.00
2945;DHT22;1482;51.398;7.128;2022-12-29T16:53:00;10.00;1.00
2945;DHT22;1482;51.398;7.128;2022-12-29T16:55:28;10.00;1.00
2945;DHT22;1482;51.398;7.128;2022-12-29T16:57:55;10.00;1.00
2945;DHT22;1482;51.398;7.128;2022-12-29T17:00:25;10.00;1.00
2945;DHT22;1482;51.398;7.128;2022-12-29T17:02:54;10.10;1.00
2945;DHT22;1482;51.398;7.128;2022-12-29T17:05:21;10.10;1.00
2945;DHT22;1482;51.398;7.128;2022-12-29T17:07:48;10.10;1.00
2945;DHT22;1482;51.398;7.128;2022-12-29T17:10:14;10.10;1.00
2945;DHT22;1482;51.398;7.128;2022-12-29T17:12:41;10.00;1.00
2945;DHT22;1482;51.398;7.128;2022-12-29T17:15:23;10.00;1.00
2945;DHT22;1482;51.398;7.128;2022-12-29T17:17:51;9.90;1.00
2945;DHT22;1482;51.398;7.128;2022-12-29T17:20:29;9.90;1.00
2945;DHT22;1482;51.398;7.128;2022-12-29T17:22:55;9.90;1.00
2945;DHT22;1482;51.398;7.128;2022-12-29T17:25:33;9.90;1.00
2945;DHT22;1482;51.398;7.128;2022-12-29T17:28:20;9.80;1.00
2945;DHT22;1482;51.398;7.128;2022-12-29T17:30:46;9.90;1.00
2945;DHT22;1482;51.398;7.128;2022-12-29T17:33:14;9.80;1.00
2945;DHT22;1482;51.398;7.128;2022-12-29T17:35:40;9.70;1.00
2945;DHT22;1482;51.398;7.128;2022-12-29T17:38:22;9.80;1.00
2945;DHT22;1482;51.398;7.128;2022-12-29T17:40:50;9.90;1.00
2945;DHT22;1482;51.398;7.128;2022-12-29T17:43:16;9.90;1.00
2945;DHT22;1482;51.398;7.128;2022-12-29T17:45:43;9.90;1.00
2945;DHT22;1482;51.398;7.128;2022-12-29T17:48:15;9.90;3.40
2945;DHT22;1482;51.398;7.128;2022-12-29T17:50:41;9.90;10.90
2945;DHT22;1482;51.398;7.128;2022-12-29T17:53:13;9.90;12.10
2945;DHT22;1482;51.398;7.128;2022-12-29T17:55:40;9.90;27.30
2945;DHT22;1482;51.398;7.128;2022-12-29T17:58:26;9.90;76.70
2945;DHT22;1482;51.398;7.128;2022-12-29T18:00:58;9.80;99.90
2945;DHT22;1482;51.398;7.128;2022-12-29T18:03:33;9.70;99.90
2945;DHT22;1482;51.398;7.128;2022-12-29T18:05:59;9.50;99.90
2945;DHT22;1482;51.398;7.128;2022-12-29T18:08:25;9.30;99.90
2945;DHT22;1482;51.398;7.128;2022-12-29T18:10:53;9.20;99.90
2945;DHT22;1482;51.398;7.128;2022-12-29T18:13:24;8.90;99.90
2945;DHT22;1482;51.398;7.128;2022-12-29T18:15:51;8.90;99.90
2945;DHT22;1482;51.398;7.128;2022-12-29T18:18:25;8.60;99.90
2945;DHT22;1482;51.398;7.128;2022-12-29T18:20:53;8.70;99.90
2945;DHT22;1482;51.398;7.128;2022-12-29T18:23:22;8.60;1.00
2945;DHT22;1482;51.398;7.128;2022-12-29T18:25:58;8.30;99.90
2945;DHT22;1482;51.398;7.128;2022-12-29T18:28:24;8.30;1.00
2945;DHT22;1482;51.398;7.128;2022-12-29T18:30:50;8.10;1.00
2945;DHT22;1482;51.398;7.128;2022-12-29T18:33:20;8.00;1.00
2945;DHT22;1482;51.398;7.128;2022-12-29T18:38:17;7.70;84.30
2945;DHT22;1482;51.398;7.128;2022-12-29T18:40:42;7.60;42.10
2945;DHT22;1482;51.398;7.128;2022-12-29T18:43:15;7.50;99.90
2945;DHT22;1482;51.398;7.128;2022-12-29T18:45:41;7.50;99.90
2945;DHT22;1482;51.398;7.128;2022-12-29T18:48:10;7.40;99.90